Observations for LONDON GATWICK ARPT, United Kingdom (EGKK)

EGKK 180520Z 24006KT 9999 FEW006 BKN020 15/14 Q1018 
EGKK 180450Z 24006KT 9999 FEW005 BKN020 15/15 Q1018 
EGKK 180420Z 23006KT 7000 BKN005 BKN020 15/15 Q1018 
EGKK 180350Z 23005KT 4500 BR FEW004 BKN007 15/15 Q1017  
EGKK 180320Z 22005KT 4500 BR FEW003 BKN005 15/15 Q1017  
EGKK 180250Z 23007KT 2500 -RADZ BR OVC003 15/15 Q1017   
EGKK 180220Z 23006KT 3000 -RADZ BR OVC003 15/15 Q1017   
EGKK 180150Z 22006KT 3500 -RADZ BR OVC003 15/15 Q1017   
EGKK 180120Z 23007KT 4000 BR OVC003 15/15 Q1017 
EGKK 180050Z 22007KT 3500 BR OVC003 15/15 Q1017 
EGKK 180020Z 22007KT 190V250 4000 BR OVC003 15/15 Q1017 
EGKK 172350Z 21008KT 4000 BR OVC003 15/15 Q1017 
EGKK 172320Z 20007KT 3000 BR OVC003 15/15 Q1017 
EGKK 172250Z 21008KT 2000 BR OVC002 15/15 Q1018 
EGKK 172220Z 21006KT 2500 BR OVC003 15/15 Q1017 
EGKK 172150Z 19007KT 160V220 2000 -DZ BR OVC002 15/15 Q1017 
EGKK 172120Z 21007KT 180V240 3000 -DZ BR OVC003 15/14 Q1018 
EGKK 172050Z 21008KT 9999 BKN004 15/14 Q1017
EGKK 172020Z 21007KT 6000 BKN004 15/14 Q1017
EGKK 171950Z 21007KT 7000 BKN004 15/14 Q1017
EGKK 171920Z 21007KT 190V250 4500 -DZ BR BKN004 14/14 Q1017 
EGKK 171850Z 22009KT 190V250 8000 BKN006 14/14 Q1017
EGKK 171820Z 21011KT 7000 BKN006 14/13 Q1017
EGKK 171750Z 22011KT 8000 -DZ BKN007 15/13 Q1017
EGKK 171720Z 22010KT 6000 -DZ BKN007 15/13 Q1017
EGKK 171650Z 21011KT 9999 BKN011 15/12 Q1017
EGKK 171620Z 22008KT 9999 BKN018 16/12 Q1017
EGKK 171550Z 22010KT 180V250 9999 BKN019 16/12 Q1017
EGKK 171520Z 23013KT 9999 BKN025 17/11 Q1017
EGKK 171450Z 22011KT 180V250 9999 SCT023 BKN028 17/11 Q1017 
EGKK 171420Z 23010KT 9999 SCT023 BKN031 17/11 Q1017 
EGKK 171350Z 23011KT 9999 SCT024 BKN031 17/11 Q1017 
EGKK 171320Z 21011KT 170V240 9999 SCT022 BKN030 17/12 Q1017 
EGKK 171250Z 22014KT 9999 BKN025 BKN031 17/11 Q1017 
EGKK 171220Z 21009KT 170V230 9999 SCT024 BKN031 18/11 Q1017 
EGKK 171150Z 23010KT 180V250 9999 FEW025 BKN031 17/11 Q1017 
EGKK 171120Z 23011KT 9999 FEW030 BKN036 18/10 Q1017 
EGKK 171050Z 23010KT 9999 SCT031 SCT039 18/09 Q1017 
EGKK 171020Z 24010KT 9999 FEW028 BKN034 17/10 Q1017 
EGKK 170950Z 26009KT 9999 FEW023 SCT028 17/10 Q1017 
EGKK 170920Z 24008KT 200V270 9999 BKN019 17/11 Q1017
EGKK 170850Z 25010KT 220V280 9999 BKN016 16/11 Q1017
EGKK 170820Z 24010KT 9999 FEW014 15/11 Q1017
EGKK 170750Z 24008KT 9999 FEW014 14/11 Q1017
EGKK 170720Z 23006KT 9999 FEW015 13/11 Q1017
EGKK 170650Z 24007KT 9999 -RA NSC 13/11 Q1017   
EGKK 170620Z 23006KT 9999 FEW044 13/10 Q1016
EGKK 170550Z 24007KT CAVOK 13/10 Q1016  
EGKK 170520Z 24007KT CAVOK 13/10 Q1016  
EGKK 170450Z 23005KT 190V260 CAVOK 13/09 Q1016